Time;durP1;ratioP1;P1;durP2;ratioP2;P2;SDS_P1;SDS_P2;PMS_P1;PMS_P2;Temp;Humidity;BMP_temperature;BMP_pressure;BME280_temperature;BME280_humidity;BME280_pressure;Samples;Min_cycle;Max_cycle;Signal;HPM_P1;HPM_P2
2022/07/28 06:37:24;;;;;;;15.98;2.13;;;;;;;18.65;52.85;96462.16;2107372;27;20562;-66
2022/07/28 06:38:26;;;;;;;15.75;2.75;;;;;;;18.44;54.08;96454.13;2099893;28;20204;-66
2022/07/28 06:39:27;;;;;;;15.23;2.47;;;;;;;18.80;52.77;96460.03;2099043;28;20196;-67
2022/07/28 06:40:30;;;;;;;18.05;2.75;;;;;;;19.00;52.46;96463.75;2098494;28;20199;-66
2022/07/28 06:41:31;;;;;;;10.93;2.13;;;;;;;19.20;52.14;96470.06;2099144;28;20244;-67
2022/07/28 06:42:33;;;;;;;7.60;2.20;;;;;;;18.79;52.59;96457.53;2094270;28;20216;-66
2022/07/28 06:43:34;;;;;;;12.23;4.00;;;;;;;18.73;53.29;96464.19;2086945;28;20703;-66
2022/07/28 07:03:59;;;;;;;12.18;2.38;;;;;;;19.97;51.29;96456.66;2092469;27;21042;-67
2022/07/28 07:05:01;;;;;;;4.50;1.50;;;;;;;20.06;51.06;96461.16;2090112;28;20553;-67
2022/07/28 07:06:03;;;;;;;4.20;2.08;;;;;;;20.22;51.07;96455.38;2089999;28;20193;-67
2022/07/28 07:07:05;;;;;;;4.93;1.30;;;;;;;19.66;51.87;96451.31;2087073;28;20206;-67
2022/07/28 07:08:19;;;;;;;9.73;2.40;;;;;;;20.02;51.16;96455.31;2078836;28;20263;-67
2022/07/28 07:09:21;;;;;;;5.63;2.35;;;;;;;19.69;52.12;96445.75;2076919;28;20197;-67
2022/07/28 07:10:22;;;;;;;8.98;2.13;;;;;;;19.63;52.66;96463.00;2083616;28;20207;-67
2022/07/28 07:11:25;;;;;;;17.65;2.65;;;;;;;19.76;52.70;96462.81;2083136;28;20193;-67
2022/07/28 07:12:27;;;;;;;12.02;2.40;;;;;;;19.96;51.95;96450.53;2081853;28;20723;-68
2022/07/28 07:32:12;;;;;;;8.20;2.40;;;;;;;21.28;49.86;96457.56;2095870;27;20559;-66
2022/07/28 07:33:14;;;;;;;12.25;2.10;;;;;;;21.71;48.94;96458.13;2092673;28;20196;-66
2022/07/28 07:34:15;;;;;;;6.30;2.28;;;;;;;22.00;48.34;96456.25;2093019;28;20189;-66
2022/07/28 07:35:18;;;;;;;10.80;3.03;;;;;;;22.10;47.49;96458.03;2092836;28;20199;-66
2022/07/28 07:36:20;;;;;;;6.30;2.00;;;;;;;22.05;47.73;96455.81;2091410;28;20546;-66
2022/07/28 07:37:23;;;;;;;8.95;2.78;;;;;;;21.51;48.78;96448.34;2092103;28;20224;-67
2022/07/28 07:38:24;;;;;;;24.88;2.08;;;;;;;21.95;48.38;96457.66;2088716;28;20202;-66
2022/07/28 07:39:29;;;;;;;10.32;2.38;;;;;;;21.73;48.71;96453.53;2088300;28;20282;-67
2022/07/28 07:40:31;;;;;;;3.40;1.98;;;;;;;21.41;49.66;96441.34;2087818;28;20564;-66
2022/07/28 07:41:32;;;;;;;9.55;1.95;;;;;;;21.82;48.62;96460.63;2088604;28;20192;-66
2022/07/28 07:42:34;;;;;;;15.30;1.98;;;;;;;22.17;47.65;96452.00;2089541;28;20224;-67
2022/07/28 07:43:35;;;;;;;3.22;1.35;;;;;;;22.45;47.05;96448.56;2086669;28;20193;-67
2022/07/28 07:44:37;;;;;;;5.25;1.65;;;;;;;22.71;46.61;96446.03;2090907;28;20294;-69
2022/07/28 08:06:18;;;;;;;13.48;2.22;;;;;;;23.33;46.25;96453.31;2085201;28;20573;-68
2022/07/28 08:07:27;;;;;;;5.88;2.13;;;;;;;22.15;48.60;96455.78;2074707;28;20291;-68
2022/07/28 08:08:28;;;;;;;24.40;4.80;;;;;;;22.48;47.93;96459.72;2082496;28;20189;-68
2022/07/28 08:09:31;;;;;;;7.35;2.03;;;;;;;22.66;47.60;96445.63;2091353;28;20776;-68
2022/07/28 08:10:33;;;;;;;16.33;3.45;;;;;;;21.54;49.79;96456.03;2074006;28;20198;-68
2022/07/28 08:11:35;;;;;;;13.02;3.95;;;;;;;21.87;49.40;96454.91;2074517;28;20197;-68
2022/07/28 08:12:36;;;;;;;12.48;2.53;;;;;;;22.01;49.24;96451.78;2073940;28;20226;-68
2022/07/28 08:13:38;;;;;;;15.80;2.63;;;;;;;21.59;49.66;96449.50;2072768;28;20197;-68
2022/07/28 08:14:39;;;;;;;17.17;3.65;;;;;;;21.25;51.30;96448.06;2074465;28;20208;-68
2022/07/28 08:15:42;;;;;;;11.77;4.32;;;;;;;21.56;50.70;96437.34;2074829;28;20189;-68
2022/07/28 08:16:43;;;;;;;23.10;4.15;;;;;;;21.66;50.74;96445.28;2071415;28;20193;-68
2022/07/28 08:17:45;;;;;;;11.23;2.88;;;;;;;22.40;48.99;96450.81;2073481;28;20236;-68
2022/07/28 08:18:46;;;;;;;12.32;3.40;;;;;;;22.98;47.75;96444.31;2072628;28;20571;-68
2022/07/28 08:19:48;;;;;;;5.95;2.10;;;;;;;23.39;46.55;96442.06;2074639;28;20213;-67
2022/07/28 08:20:49;;;;;;;7.70;3.45;;;;;;;23.70;45.50;96443.47;2075289;28;20201;-67
2022/07/28 08:21:51;;;;;;;10.35;2.75;;;;;;;23.99;45.05;96450.34;2075784;28;20267;-68
2022/07/28 08:22:54;;;;;;;5.53;2.33;;;;;;;23.95;44.85;96444.50;2070485;28;20212;-68
2022/07/28 08:23:57;;;;;;;11.75;2.90;;;;;;;23.05;46.59;96440.06;2071255;28;20833;-68
2022/07/28 08:24:59;;;;;;;4.30;1.90;;;;;;;23.25;46.88;96447.91;2071863;28;20201;-68
2022/07/28 08:26:02;;;;;;;3.42;1.42;;;;;;;23.44;46.09;96426.44;2073105;28;20759;-68
2022/07/28 08:27:04;;;;;;;11.30;2.50;;;;;;;22.66;47.73;96443.81;2074266;28;20197;-68
2022/07/28 08:28:05;;;;;;;5.05;1.75;;;;;;;23.47;45.91;96446.63;2075796;28;20201;-68
2022/07/28 08:29:08;;;;;;;6.78;2.20;;;;;;;23.39;46.34;96450.06;2070925;28;20716;-68
2022/07/28 08:30:11;;;;;;;7.38;3.03;;;;;;;23.55;45.79;96452.00;2069438;28;20195;-68
2022/07/28 08:31:16;;;;;;;7.13;3.08;;;;;;;24.03;45.34;96441.03;2074069;28;20289;-68
2022/07/28 08:54:01;;;;;;;8.77;2.85;;;;;;;23.79;46.24;96446.03;2100897;27;20557;-68
2022/07/28 08:55:06;;;;;;;5.63;2.58;;;;;;;23.52;46.50;96444.31;2101715;28;20653;-68
2022/07/28 08:56:12;;;;;;;6.15;2.35;;;;;;;24.25;45.34;96450.31;2099457;28;20199;-68
2022/07/28 08:57:41;;;;;;;5.00;2.20;;;;;;;24.00;45.30;96444.84;2088248;28;21348;-68
2022/07/28 08:58:42;;;;;;;8.77;2.72;;;;;;;23.92;45.79;96444.78;2080244;28;20204;-68
2022/07/28 08:59:45;;;;;;;9.30;3.60;;;;;;;23.81;45.71;96444.03;2080840;28;20285;-68
2022/07/28 09:00:47;;;;;;;8.10;2.83;;;;;;;23.17;47.16;96448.69;2081823;28;20262;-68
2022/07/28 09:01:50;;;;;;;18.25;3.88;;;;;;;22.44;49.50;96439.72;2082201;28;20193;-68
2022/07/28 09:02:59;;;;;;;7.88;3.10;;;;;;;23.55;46.99;96446.66;2091080;28;20290;-68
2022/07/28 09:04:01;;;;;;;13.63;2.08;;;;;;;24.36;45.80;96443.88;2090355;28;20214;-68
2022/07/28 09:05:03;;;;;;;10.20;2.67;;;;;;;25.14;44.29;96441.94;2088763;28;20196;-68
2022/07/28 09:06:06;;;;;;;6.03;2.17;;;;;;;25.06;43.62;96443.59;2090840;28;20695;-68
2022/07/28 09:07:09;;;;;;;6.53;2.55;;;;;;;25.49;42.82;96443.50;2089763;28;20230;-68
2022/07/28 09:08:11;;;;;;;5.15;2.58;;;;;;;24.28;44.47;96439.34;2091254;28;20199;-68
2022/07/28 09:09:13;;;;;;;9.30;2.45;;;;;;;24.02;45.83;96436.69;2090639;28;20197;-68
2022/07/28 09:10:14;;;;;;;5.47;3.13;;;;;;;24.46;44.63;96453.41;2090530;28;20433;-68
2022/07/28 09:11:16;;;;;;;5.13;2.35;;;;;;;24.63;44.73;96440.13;2091857;28;20191;-68
2022/07/28 09:12:17;;;;;;;10.82;2.88;;;;;;;24.23;44.79;96437.13;2092254;28;20594;-68
2022/07/28 09:13:27;;;;;;;9.75;2.70;;;;;;;24.40;45.48;96437.22;2089805;28;20216;-68
2022/07/28 09:14:29;;;;;;;6.07;2.65;;;;;;;25.18;43.90;96446.81;2087809;28;20200;-68
2022/07/28 09:15:31;;;;;;;11.00;2.40;;;;;;;25.08;43.87;96444.28;2090108;28;20200;-68
2022/07/28 09:16:33;;;;;;;6.22;2.60;;;;;;;25.72;42.71;96448.19;2088670;28;20249;-68
2022/07/28 09:17:35;;;;;;;8.75;3.00;;;;;;;25.98;41.87;96439.13;2088356;28;20231;-69
2022/07/28 09:18:37;;;;;;;8.23;2.65;;;;;;;26.37;41.03;96438.38;2091048;28;20195;-68
2022/07/28 09:19:39;;;;;;;9.57;2.53;;;;;;;24.88;43.42;96438.41;2091043;28;20203;-68
2022/07/28 09:20:42;;;;;;;16.13;3.00;;;;;;;24.39;45.69;96438.22;2090460;28;21083;-68
2022/07/28 09:21:44;;;;;;;8.25;2.70;;;;;;;24.52;45.17;96437.75;2091270;28;20200;-68
2022/07/28 09:22:59;;;;;;;6.25;2.25;;;;;;;24.98;44.19;96437.44;2089261;28;20230;-69
2022/07/28 09:24:00;;;;;;;6.55;2.70;;;;;;;24.68;44.19;96429.00;2092882;28;20544;-68
2022/07/28 09:25:02;;;;;;;12.90;2.80;;;;;;;24.68;44.52;96435.16;2087423;28;20812;-68
2022/07/28 09:26:06;;;;;;;10.80;3.83;;;;;;;24.00;45.40;96436.84;2088502;28;20196;-68
2022/07/28 09:27:13;;;;;;;8.57;3.10;;;;;;;23.87;46.54;96439.06;2088608;28;20220;-68
2022/07/28 09:28:17;;;;;;;7.72;3.28;;;;;;;24.08;45.47;96434.22;2089088;28;20203;-68
2022/07/28 09:29:23;;;;;;;14.82;2.90;;;;;;;24.13;45.73;96436.44;2089687;28;20197;-68
2022/07/28 09:30:33;;;;;;;11.10;2.90;;;;;;;24.91;44.67;96438.09;2091587;28;20197;-68
2022/07/28 09:31:50;;;;;;;9.43;2.60;;;;;;;25.71;42.65;96430.47;2089669;28;20635;-68
2022/07/28 09:33:20;;;;;;;15.57;3.40;;;;;;;25.19;43.62;96443.16;2089309;28;20223;-68
2022/07/28 09:34:44;;;;;;;13.60;2.95;;;;;;;26.29;41.27;96441.09;2090246;28;20207;-68
2022/07/28 09:35:56;;;;;;;23.85;4.28;;;;;;;26.35;41.71;96438.53;2093421;28;20192;-68
2022/07/28 09:36:58;;;;;;;19.80;2.53;;;;;;;26.62;41.15;96454.34;2088417;28;20866;-68
2022/07/28 09:37:59;;;;;;;10.20;2.75;;;;;;;25.67;42.46;96447.84;2092906;28;20199;-68
2022/07/28 09:39:01;;;;;;;32.45;3.92;;;;;;;24.92;43.88;96444.25;2083775;28;20215;-68
2022/07/28 09:40:10;;;;;;;18.95;3.60;;;;;;;25.86;42.18;96444.81;2085871;28;20212;-68
2022/07/28 09:41:13;;;;;;;9.63;2.53;;;;;;;26.59;41.02;96439.47;2088415;28;20731;-68
2022/07/28 09:42:18;;;;;;;10.70;2.92;;;;;;;25.38;41.96;96428.66;2090636;28;20281;-68
2022/07/28 09:43:33;;;;;;;13.30;2.47;;;;;;;24.52;44.47;96427.06;2088315;28;20197;-68
2022/07/28 09:44:35;;;;;;;11.48;3.05;;;;;;;24.96;44.45;96436.75;2090100;28;20558;-69
2022/07/28 09:45:36;;;;;;;14.90;2.67;;;;;;;25.71;43.04;96430.47;2091227;28;20203;-69
2022/07/28 09:46:37;;;;;;;6.60;2.60;;;;;;;26.45;41.60;96438.34;2086255;28;20196;-69
2022/07/28 09:47:39;;;;;;;12.27;3.13;;;;;;;26.76;40.76;96440.25;2087051;28;20284;-68
2022/07/28 09:48:59;;;;;;;9.45;2.33;;;;;;;25.44;43.18;96435.16;2088460;28;20772;-68
2022/07/28 09:50:01;;;;;;;16.20;2.80;;;;;;;24.72;43.82;96430.34;2090110;28;20195;-69
2022/07/28 09:51:12;;;;;;;6.60;2.65;;;;;;;24.36;45.57;96423.34;2090626;28;20220;-69
2022/07/28 09:52:26;;;;;;;13.23;3.42;;;;;;;25.10;44.43;96428.09;2087376;28;20238;-68
2022/07/28 09:53:28;;;;;;;5.45;2.70;;;;;;;25.72;42.86;96418.78;2089325;28;20227;-69
2022/07/28 09:54:29;;;;;;;5.40;2.92;;;;;;;26.56;41.58;96418.38;2091127;28;20215;-68
2022/07/28 09:55:34;;;;;;;14.32;2.95;;;;;;;26.99;40.75;96426.06;2088507;28;20628;-69
2022/07/28 09:56:42;;;;;;;5.85;2.28;;;;;;;27.52;39.67;96418.16;2088001;28;20201;-69
2022/07/28 09:57:44;;;;;;;14.57;3.08;;;;;;;26.43;41.33;96410.91;2084901;28;20221;-68
2022/07/28 09:58:54;;;;;;;5.95;2.50;;;;;;;26.89;40.50;96411.06;2090743;28;20543;-69
2022/07/28 09:59:57;;;;;;;6.60;2.88;;;;;;;27.27;40.36;96417.50;2090239;28;20188;-69
2022/07/28 10:01:05;;;;;;;5.35;2.70;;;;;;;28.06;38.82;96419.00;2087871;28;20189;-68
2022/07/28 10:02:08;;;;;;;3.95;2.00;;;;;;;27.80;38.41;96415.72;2089334;28;20223;-69
2022/07/28 10:03:23;;;;;;;9.43;2.20;;;;;;;27.70;38.76;96407.91;2089368;28;20197;-68
2022/07/28 10:04:31;;;;;;;5.03;2.53;;;;;;;26.28;40.90;96418.81;2088198;28;20589;-68
2022/07/28 10:05:43;;;;;;;10.68;2.22;;;;;;;27.13;39.92;96414.56;2082498;28;20189;-68
2022/07/28 10:06:45;;;;;;;8.10;2.40;;;;;;;26.69;40.98;96410.63;2079517;28;20196;-68
2022/07/28 10:07:49;;;;;;;11.98;2.40;;;;;;;26.94;40.79;96415.84;2086986;28;20583;-68
2022/07/28 10:08:51;;;;;;;5.25;2.35;;;;;;;27.17;40.22;96415.03;2086929;28;20216;-68
2022/07/28 10:10:04;;;;;;;6.85;2.40;;;;;;;27.28;40.30;96411.13;2085212;28;20203;-68
2022/07/28 10:11:07;;;;;;;11.63;2.47;;;;;;;27.10;40.44;96412.25;2083851;28;20205;-68
2022/07/28 10:12:17;;;;;;;6.78;2.88;;;;;;;26.98;40.42;96413.66;2084747;28;20224;-68
2022/07/28 10:13:19;;;;;;;5.63;1.92;;;;;;;27.24;40.32;96412.50;2081175;28;20228;-68
2022/07/28 10:14:34;;;;;;;5.72;2.22;;;;;;;28.27;38.58;96404.84;2084188;28;20204;-67
2022/07/28 10:16:55;;;;;;;15.45;3.45;;;;;;;25.51;42.23;96408.59;2084275;28;20211;-68
2022/07/28 10:17:57;;;;;;;15.55;4.03;;;;;;;26.16;41.64;96406.84;2084465;28;20207;-68
2022/07/28 10:19:01;;;;;;;14.25;3.13;;;;;;;26.54;40.58;96410.53;2080644;28;20201;-68
2022/07/28 10:20:05;;;;;;;12.75;3.25;;;;;;;27.45;39.16;96401.97;2086406;28;20193;-68
2022/07/28 10:21:12;;;;;;;10.85;2.60;;;;;;;27.74;38.01;96394.97;2083414;28;20706;-68
2022/07/28 10:22:17;;;;;;;9.88;2.35;;;;;;;26.42;41.11;96403.88;2081252;28;20217;-68
2022/07/28 10:23:20;;;;;;;7.53;2.75;;;;;;;27.24;39.91;96396.41;2082563;28;20207;-68
2022/07/28 10:24:24;;;;;;;10.57;2.55;;;;;;;27.72;38.53;96398.84;2082477;28;20544;-69
2022/07/28 10:25:28;;;;;;;17.30;3.15;;;;;;;26.44;41.06;96395.72;2083167;28;20644;-68
2022/07/28 10:26:31;;;;;;;7.45;2.70;;;;;;;26.45;41.34;96392.00;2082968;28;20204;-68
2022/07/28 10:27:32;;;;;;;7.72;2.95;;;;;;;26.63;41.27;96391.75;2082162;28;20224;-68
2022/07/28 10:28:37;;;;;;;5.30;2.40;;;;;;;26.89;40.36;96396.81;2083394;28;20200;-68
2022/07/28 10:29:43;;;;;;;7.53;2.45;;;;;;;27.14;39.69;96402.84;2085405;28;20204;-68
2022/07/28 10:30:46;;;;;;;7.97;2.38;;;;;;;28.17;38.56;96394.41;2081911;28;20651;-68
2022/07/28 10:31:53;;;;;;;9.75;2.47;;;;;;;29.17;37.20;96397.44;2080526;28;20338;-67
2022/07/28 10:32:57;;;;;;;12.43;3.50;;;;;;;29.65;35.82;96395.00;2083007;28;20197;-68
2022/07/28 10:34:00;;;;;;;10.38;2.40;;;;;;;30.16;34.72;96385.00;2085041;28;20468;-68
2022/07/28 10:35:06;;;;;;;9.82;2.60;;;;;;;29.56;35.17;96389.94;2085351;28;20299;-68
2022/07/28 10:36:08;;;;;;;3.10;2.17;;;;;;;29.34;35.87;96387.28;2081259;28;20193;-68
2022/07/28 10:37:19;;;;;;;5.45;2.55;;;;;;;28.29;37.08;96394.75;2077588;28;20228;-68
2022/07/28 10:38:21;;;;;;;6.15;2.30;;;;;;;26.30;40.00;96392.75;2077023;28;20194;-68
2022/07/28 10:39:27;;;;;;;7.63;3.25;;;;;;;26.28;40.30;96397.41;2081993;28;20220;-68
2022/07/28 10:40:37;;;;;;;4.18;2.25;;;;;;;26.21;40.89;96388.44;2082126;28;20205;-68
2022/07/28 10:41:41;;;;;;;4.53;2.42;;;;;;;26.51;41.06;96384.13;2083233;28;20209;-68
2022/07/28 10:42:42;;;;;;;5.80;1.85;;;;;;;27.75;39.26;96395.81;2083051;28;20226;-68
2022/07/28 10:43:46;;;;;;;10.55;2.72;;;;;;;27.48;39.09;96392.72;2085641;28;20192;-68
2022/07/28 10:44:52;;;;;;;6.22;3.00;;;;;;;26.85;39.97;96398.19;2082905;28;20229;-68
2022/07/28 10:45:56;;;;;;;5.22;1.92;;;;;;;27.26;39.52;96389.00;2087575;28;20729;-68
2022/07/28 10:47:08;;;;;;;3.78;2.00;;;;;;;25.71;42.02;96398.38;2083481;28;20224;-68
2022/07/28 10:48:20;;;;;;;7.35;3.00;;;;;;;26.54;41.48;96394.47;2085616;28;20238;-67
2022/07/28 10:49:26;;;;;;;6.72;2.30;;;;;;;27.78;39.00;96396.31;2081320;28;20589;-66
2022/07/28 10:50:35;;;;;;;7.65;2.78;;;;;;;28.16;38.46;96398.94;2083942;28;20601;-67
2022/07/28 10:51:46;;;;;;;7.47;2.72;;;;;;;27.61;39.20;96397.47;2083529;28;20628;-67
2022/07/28 10:53:24;;;;;;;7.95;1.75;;;;;;;28.65;37.69;96393.97;2085508;28;20252;-67
2022/07/28 10:54:29;;;;;;;10.30;2.58;;;;;;;29.17;36.44;96400.13;2084374;28;20243;-67
2022/07/28 10:55:31;;;;;;;7.07;2.05;;;;;;;29.32;36.08;96395.53;2084403;28;20594;-67
2022/07/28 10:56:32;;;;;;;9.10;2.63;;;;;;;28.02;37.41;96395.22;2084786;28;20223;-67
2022/07/28 10:57:40;;;;;;;5.05;2.60;;;;;;;26.03;40.82;96407.34;2085672;28;20229;-67
2022/07/28 10:59:13;;;;;;;6.97;2.10;;;;;;;27.54;39.30;96392.81;2083193;28;20193;-67
2022/07/28 11:00:24;;;;;;;5.00;2.65;;;;;;;28.28;37.55;96387.75;2081816;28;20208;-67
2022/07/28 11:01:38;;;;;;;2.28;1.38;;;;;;;29.09;35.80;96395.72;2083682;28;20224;-66
2022/07/28 11:02:59;;;;;;;3.83;1.98;;;;;;;29.13;36.03;96391.63;2086763;28;20216;-67
2022/07/28 11:04:01;;;;;;;5.38;2.10;;;;;;;29.92;35.07;96394.38;2080391;28;20331;-66
2022/07/28 11:05:03;;;;;;;6.50;2.53;;;;;;;29.62;34.81;96394.53;2081819;28;20576;-67
2022/07/28 11:06:23;;;;;;;4.05;2.10;;;;;;;29.96;34.68;96388.41;2082459;28;20193;-67
2022/07/28 11:07:38;;;;;;;5.97;2.15;;;;;;;30.62;33.56;96384.41;2083503;28;20220;-67
2022/07/28 11:08:39;;;;;;;4.60;2.17;;;;;;;30.82;33.22;96394.44;2083808;28;20212;-67
2022/07/28 11:09:42;;;;;;;10.45;2.33;;;;;;;29.03;35.23;96388.41;2082908;28;20218;-67
2022/07/28 11:10:49;;;;;;;5.93;1.83;;;;;;;28.49;36.72;96386.94;2084222;28;20200;-67
2022/07/28 11:11:58;;;;;;;6.88;2.22;;;;;;;29.25;35.27;96393.78;2083726;28;20203;-67
2022/07/28 11:12:59;;;;;;;14.73;2.20;;;;;;;29.58;34.78;96390.59;2083954;28;20226;-67
2022/07/28 11:14:26;;;;;;;9.52;2.40;;;;;;;29.95;34.77;96383.22;2084291;28;20280;-67
2022/07/28 11:15:33;;;;;;;5.03;1.42;;;;;;;30.24;34.05;96387.53;2084231;28;20193;-67
2022/07/28 11:16:35;;;;;;;4.93;2.37;;;;;;;30.05;33.80;96386.38;2086202;28;20197;-67
2022/07/28 11:17:37;;;;;;;3.08;1.50;;;;;;;28.05;37.09;96380.63;2082023;28;20954;-67
2022/07/28 11:19:01;;;;;;;13.15;2.30;;;;;;;27.00;39.53;96376.81;2085687;28;20201;-67
2022/07/28 11:20:05;;;;;;;18.10;4.22;;;;;;;27.65;38.50;96380.00;2086470;28;20192;-68
2022/07/28 11:21:27;;;;;;;10.00;2.80;;;;;;;26.86;39.47;96373.88;2082973;28;20201;-68
2022/07/28 11:22:39;;;;;;;5.50;2.85;;;;;;;28.14;37.63;96379.50;2080775;28;20637;-68
2022/07/28 11:23:51;;;;;;;3.78;2.10;;;;;;;28.03;37.56;96369.22;2079806;28;20841;-67
2022/07/28 11:25:05;;;;;;;5.15;2.67;;;;;;;28.85;36.39;96378.13;2083066;28;20200;-67
2022/07/28 11:26:22;;;;;;;3.95;1.63;;;;;;;29.56;34.84;96373.81;2084610;28;20197;-67
2022/07/28 11:27:38;;;;;;;4.75;2.15;;;;;;;29.66;34.85;96371.59;2085736;28;20231;-67
2022/07/28 11:28:58;;;;;;;6.80;1.90;;;;;;;30.40;34.51;96375.59;2084274;28;20563;-67
2022/07/28 11:30:00;;;;;;;13.68;1.85;;;;;;;30.42;33.31;96373.53;2081298;28;20196;-67
2022/07/28 11:31:02;;;;;;;20.45;3.65;;;;;;;30.24;33.49;96379.44;2083988;28;20215;-67
2022/07/28 11:32:04;;;;;;;11.20;2.63;;;;;;;30.08;34.05;96379.78;2082972;28;20192;-67
2022/07/28 11:33:08;;;;;;;7.60;2.42;;;;;;;29.23;34.62;96374.31;2083372;28;20201;-67
2022/07/28 11:34:10;;;;;;;11.07;2.10;;;;;;;29.10;35.24;96375.88;2081590;28;20581;-67
2022/07/28 11:35:12;;;;;;;11.98;2.45;;;;;;;28.72;35.54;96375.25;2085958;28;20613;-68
2022/07/28 11:36:13;;;;;;;4.45;2.35;;;;;;;28.85;34.98;96370.06;2084518;28;20548;-67
2022/07/28 11:37:18;;;;;;;3.58;1.70;;;;;;;28.41;36.42;96371.78;2083637;28;20224;-67
2022/07/28 11:38:21;;;;;;;9.20;1.90;;;;;;;27.35;37.78;96363.81;2088314;28;20200;-68
2022/07/28 11:39:24;;;;;;;9.32;2.30;;;;;;;25.99;39.88;96363.22;2095189;28;20297;-67
2022/07/28 11:40:32;;;;;;;8.85;2.60;;;;;;;26.28;39.63;96367.16;2082601;28;20203;-67
2022/07/28 11:41:34;;;;;;;11.35;2.67;;;;;;;26.55;39.19;96368.53;2083362;28;20622;-67
2022/07/28 11:42:35;;;;;;;16.40;3.28;;;;;;;26.82;39.02;96366.41;2085430;28;20224;-67
2022/07/28 11:43:38;;;;;;;23.58;3.33;;;;;;;28.14;37.06;96373.31;2084779;28;20200;-67
2022/07/28 11:44:40;;;;;;;11.68;2.55;;;;;;;28.32;36.22;96373.75;2083164;28;20226;-67
2022/07/28 11:45:43;;;;;;;13.05;2.65;;;;;;;28.42;36.26;96370.78;2084654;28;20229;-67
2022/07/28 11:47:19;;;;;;;14.57;3.05;;;;;;;28.60;36.01;96374.91;2084518;28;20235;-67
2022/07/28 11:48:22;;;;;;;8.98;2.50;;;;;;;29.67;33.73;96365.19;2082371;28;20192;-67
2022/07/28 11:49:24;;;;;;;10.63;2.95;;;;;;;30.77;32.29;96362.69;2080876;28;20212;-67
2022/07/28 11:50:27;;;;;;;9.32;2.55;;;;;;;30.36;32.41;96360.03;2082588;28;20292;-67
2022/07/28 11:51:30;;;;;;;18.20;3.08;;;;;;;30.89;31.77;96359.41;2082864;28;20193;-67
2022/07/28 11:52:37;;;;;;;4.13;2.33;;;;;;;30.65;31.75;96352.72;2083385;28;20232;-69
2022/07/28 11:53:39;;;;;;;10.02;3.95;;;;;;;29.78;33.56;96358.47;2080788;28;20233;-66
2022/07/28 11:54:46;;;;;;;9.70;2.55;;;;;;;29.16;34.46;96350.91;2082090;28;20194;-67
2022/07/28 11:55:52;;;;;;;8.73;2.67;;;;;;;29.94;33.71;96350.09;2083857;28;20605;-67
2022/07/28 11:57:04;;;;;;;7.10;2.90;;;;;;;30.21;32.99;96349.41;2084069;28;20192;-67
2022/07/28 11:58:06;;;;;;;3.80;1.90;;;;;;;29.60;34.28;96340.94;2083672;28;20209;-67
2022/07/28 11:59:09;;;;;;;4.90;2.08;;;;;;;29.67;34.35;96348.25;2083789;28;20193;-67
2022/07/28 12:00:18;;;;;;;3.67;1.92;;;;;;;30.50;33.45;96345.63;2079553;28;20558;-67
2022/07/28 12:01:22;;;;;;;8.65;2.00;;;;;;;31.29;32.46;96346.00;2079042;28;20200;-67
2022/07/28 12:02:28;;;;;;;7.43;2.17;;;;;;;31.78;31.25;96322.31;2080103;28;20236;-67
2022/07/28 12:03:32;;;;;;;4.90;2.00;;;;;;;32.03;30.54;96354.88;2080940;28;20423;-67
2022/07/28 12:05:04;;;;;;;3.90;2.90;;;;;;;30.96;32.36;96352.16;2080963;28;20434;-68
2022/07/28 12:06:10;;;;;;;4.73;1.90;;;;;;;29.18;34.74;96348.03;2082471;28;20445;-67
2022/07/28 12:07:14;;;;;;;3.53;1.93;;;;;;;29.18;34.84;96345.34;2080976;28;20465;-67
2022/07/28 12:08:17;;;;;;;4.90;2.17;;;;;;;29.36;34.62;96361.03;2081999;28;20892;-67
2022/07/28 12:09:19;;;;;;;6.40;2.07;;;;;;;29.32;34.66;96359.78;2080541;28;20789;-67
2022/07/28 12:10:34;;;;;;;6.53;2.23;;;;;;;29.47;33.77;96357.81;2086372;28;20963;-67
2022/07/28 12:11:56;;;;;;;8.07;2.40;;;;;;;29.09;34.97;96352.72;2081611;28;20429;-67
2022/07/28 12:13:04;;;;;;;3.95;2.35;;;;;;;30.30;33.33;96361.69;2082249;28;20272;-67
2022/07/28 12:14:07;;;;;;;3.70;1.70;;;;;;;31.16;32.25;96354.09;2080470;28;20223;-67
2022/07/28 12:15:14;;;;;;;3.77;1.83;;;;;;;31.90;31.39;96346.81;2079412;28;20565;-67
2022/07/28 12:16:15;;;;;;;7.23;2.23;;;;;;;31.55;31.71;96355.97;2083608;28;20909;-68
2022/07/28 12:17:17;;;;;;;5.93;1.70;;;;;;;31.39;31.63;96351.81;2085361;28;20473;-68
2022/07/28 12:18:18;;;;;;;4.73;2.10;;;;;;;31.35;31.58;96353.28;2082720;28;20434;-68
2022/07/28 12:19:20;;;;;;;7.20;2.30;;;;;;;30.90;32.14;96347.59;2081808;28;20441;-67
2022/07/28 12:20:21;;;;;;;4.80;2.40;;;;;;;30.85;31.95;96344.69;2082893;28;20442;-68
2022/07/28 12:21:49;;;;;;;3.00;1.90;;;;;;;30.75;32.35;96336.97;2083926;28;20425;-68
2022/07/28 12:23:27;;;;;;;4.07;2.30;;;;;;;30.92;32.12;96349.06;2081544;28;20441;-68
2022/07/28 12:24:45;;;;;;;7.23;2.30;;;;;;;29.16;34.89;96339.34;2096366;28;20785;-68
2022/07/28 12:25:47;;;;;;;6.30;2.77;;;;;;;28.38;36.09;96337.28;2093497;28;20988;-68
2022/07/28 12:26:50;;;;;;;10.47;3.40;;;;;;;28.98;35.01;96334.41;2078221;28;20469;-67
2022/07/28 12:27:51;;;;;;;6.30;3.00;;;;;;;29.60;34.07;96337.44;2080663;28;20437;-68
2022/07/28 12:28:55;;;;;;;15.40;3.83;;;;;;;29.24;34.86;96330.28;2078475;28;20431;-68
2022/07/28 12:29:58;;;;;;;3.80;2.50;;;;;;;29.67;34.73;96326.72;2080337;28;20427;-68
2022/07/28 12:31:18;;;;;;;5.13;2.20;;;;;;;30.64;33.19;96332.19;2081559;28;20429;-66
2022/07/28 12:32:19;;;;;;;5.53;2.80;;;;;;;29.97;33.64;96340.81;2081838;28;20508;-66
2022/07/28 12:33:23;;;;;;;5.13;2.40;;;;;;;29.36;33.85;96333.31;2082199;28;20549;-66
2022/07/28 12:34:33;;;;;;;5.70;2.60;;;;;;;29.62;34.22;96328.16;2085397;28;20425;-66
2022/07/28 12:35:35;;;;;;;3.03;1.90;;;;;;;30.81;32.51;96329.97;2083527;28;20879;-65
2022/07/28 12:36:37;;;;;;;18.40;11.27;;;;;;;31.76;31.08;96329.81;2078798;28;20434;-65
2022/07/28 12:37:40;;;;;;;11.67;6.77;;;;;;;31.89;30.86;96327.06;2081086;28;20454;-65
2022/07/28 12:38:44;;;;;;;19.03;9.50;;;;;;;31.94;30.33;96331.84;2084332;28;20426;-67
2022/07/28 12:39:50;;;;;;;5.37;2.80;;;;;;;32.02;30.73;96328.09;2083386;28;20905;-66
2022/07/28 12:40:52;;;;;;;7.43;1.73;;;;;;;32.20;30.20;96328.28;2082315;28;20430;-66
2022/07/28 12:42:02;;;;;;;4.80;2.07;;;;;;;31.42;30.74;96323.59;2082114;28;20437;-67
2022/07/28 12:43:04;;;;;;;15.93;2.00;;;;;;;30.42;32.92;96322.38;2082640;28;20823;-67
2022/07/28 12:44:05;;;;;;;4.30;2.43;;;;;;;31.40;31.49;96320.28;2084114;28;20427;-67
2022/07/28 12:45:09;;;;;;;3.77;2.30;;;;;;;31.62;31.06;96320.03;2082039;28;20430;-66
2022/07/28 12:46:10;;;;;;;15.20;2.30;;;;;;;31.68;31.24;96322.78;2086165;28;20928;-66
2022/07/28 12:47:13;;;;;;;9.40;2.47;;;;;;;30.98;32.13;96331.22;2084341;28;20532;-67
2022/07/28 12:48:18;;;;;;;3.60;1.93;;;;;;;31.97;31.20;96320.63;2082303;28;20464;-66
2022/07/28 12:49:21;;;;;;;9.20;1.93;;;;;;;32.80;29.25;96312.81;2086259;28;20425;-67
2022/07/28 12:50:23;;;;;;;4.40;2.13;;;;;;;31.57;30.78;96318.00;2085905;28;20445;-67
2022/07/28 12:51:39;;;;;;;3.90;2.20;;;;;;;31.64;30.65;96299.13;2081644;28;20434;-67
2022/07/28 12:52:44;;;;;;;7.90;2.67;;;;;;;32.16;30.10;96316.19;2098633;28;20459;-64
2022/07/28 12:53:54;;;;;;;4.20;2.10;;;;;;;32.87;29.46;96316.31;2095693;28;20468;-64
2022/07/28 12:54:56;;;;;;;10.53;7.50;;;;;;;32.05;29.91;96317.69;2081650;28;20425;-66
2022/07/28 12:56:01;;;;;;;7.60;4.03;;;;;;;31.05;31.03;96320.47;2083851;28;20891;-65
2022/07/28 12:57:03;;;;;;;6.53;2.40;;;;;;;31.07;31.54;96313.84;2082897;28;20418;-67
2022/07/28 12:58:05;;;;;;;7.70;2.70;;;;;;;32.26;30.07;96317.66;2078318;28;20472;-67
2022/07/28 12:59:09;;;;;;;4.90;1.50;;;;;;;31.87;30.14;96306.75;2080474;28;20433;-68
2022/07/28 13:00:10;;;;;;;6.90;1.87;;;;;;;31.98;29.92;96316.88;2083456;28;20981;-67
2022/07/28 13:01:12;;;;;;;12.07;2.50;;;;;;;31.94;30.11;96318.34;2083135;28;20422;-67
2022/07/28 13:02:14;;;;;;;2.80;1.60;;;;;;;32.74;29.41;96324.53;2083104;28;20461;-67
2022/07/28 13:03:24;;;;;;;4.83;2.50;;;;;;;33.50;28.37;96320.03;2083912;28;20987;-68
2022/07/28 13:04:48;;;;;;;3.33;2.47;;;;;;;32.21;29.45;96315.59;2080813;28;20435;-67
2022/07/28 13:06:02;;;;;;;5.37;2.23;;;;;;;31.26;30.71;96312.19;2080924;28;20426;-68
2022/07/28 13:07:11;;;;;;;9.13;2.10;;;;;;;30.51;31.55;96320.34;2083784;28;20921;-68
2022/07/28 13:08:13;;;;;;;6.40;2.53;;;;;;;29.03;33.45;96315.00;2082241;28;20441;-68